Chesterville, Illinois
Current Conditions -  °F | °C
As of 1:53 AM on Friday 31 Oct 2014 (Local Time) from KMTO Reporting Station
Broken Clouds Broken Clouds  
Wind Chill: 45°   Ceiling: 8000
Heat Index: 45°   Visibility: 10mi
Dew Point: 43°   Wind: 3mph
Humidity: 93%   Direction: 330°NNW
Pressure: 30.04"   Gusts: NA
Location:  39.7005°N, 88.4541°W
Report Text: KMTO 310653Z AUTO 33003KT 10SM BKN080 07/06 A3004 RMK AO2 SLP174 T00720061
Loading
Personal Weather Stations






























Interactive Weather Map
Tropical Storm Tracking
New forecast layout! Learn more

10-Day Weather Forecast

Advertisements
Track Severe Weather on mobile